createdAt,value
2023-04-08T00:01:32.970Z,52.08
2023-04-08T00:04:01.355Z,51.67
2023-04-08T00:06:30.085Z,55.03
2023-04-08T00:08:58.363Z,57.08
2023-04-08T00:11:27.028Z,59.63
2023-04-08T00:13:55.549Z,64.20
2023-04-08T00:16:24.281Z,66.28
2023-04-08T00:18:52.877Z,63.13
2023-04-08T00:21:21.982Z,63.17
2023-04-08T00:23:50.444Z,63.70
2023-04-08T00:26:20.166Z,60.42
2023-04-08T00:28:49.519Z,62.40
2023-04-08T00:31:18.383Z,63.20
2023-04-08T00:33:46.949Z,62.08
2023-04-08T00:36:15.623Z,63.72
2023-04-08T00:38:44.252Z,64.07
2023-04-08T00:41:13.290Z,63.70
2023-04-08T00:43:41.707Z,57.88
2023-04-08T00:46:10.929Z,58.25
2023-04-08T00:48:39.477Z,56.33
2023-04-08T00:51:08.564Z,87.45
2023-04-08T00:53:37.158Z,69.82
2023-04-08T00:56:06.538Z,53.90
2023-04-08T00:58:35.018Z,51.30
2023-04-08T01:01:41.392Z,52.42
2023-04-08T01:04:36.505Z,47.92
2023-04-08T01:07:29.152Z,71.68
2023-04-08T01:12:33.351Z,41.05
2023-04-08T01:15:10.506Z,46.13
2023-04-08T01:17:40.771Z,41.72
2023-04-08T01:20:11.085Z,43.45
2023-04-08T01:22:55.401Z,53.58
2023-04-08T01:25:31.458Z,40.28
2023-04-08T01:28:03.851Z,48.80
2023-04-08T01:30:33.764Z,44.35
2023-04-08T01:33:04.322Z,44.92
2023-04-08T01:35:33.269Z,41.47
2023-04-08T01:38:03.854Z,60.15
2023-04-08T01:40:34.811Z,36.75
2023-04-08T01:43:09.363Z,39.75
2023-04-08T01:45:39.645Z,38.10
2023-04-08T01:48:09.316Z,39.05
2023-04-08T01:50:38.790Z,52.65
2023-04-08T01:53:10.537Z,44.70
2023-04-08T01:55:41.082Z,53.35
2023-04-08T01:58:15.701Z,47.00
2023-04-08T02:00:45.452Z,46.72
2023-04-08T02:05:48.020Z,53.47
2023-04-08T02:08:16.661Z,47.75
2023-04-08T02:10:44.823Z,50.10
2023-04-08T02:13:13.463Z,57.25
2023-04-08T02:15:47.908Z,45.75
2023-04-08T02:18:22.908Z,57.85
2023-04-08T02:20:59.834Z,49.25
2023-04-08T02:23:34.537Z,44.67
2023-04-08T02:26:07.969Z,46.13
2023-04-08T02:28:37.685Z,41.30
2023-04-08T02:31:08.379Z,40.83
2023-04-08T02:33:39.075Z,45.55
2023-04-08T02:36:08.624Z,55.13
2023-04-08T02:38:38.170Z,51.70
2023-04-08T02:41:06.543Z,50.50
2023-04-08T02:43:35.288Z,56.47
2023-04-08T02:46:07.723Z,48.00
2023-04-08T02:48:38.194Z,51.10
2023-04-08T02:51:06.549Z,52.60
2023-04-08T02:53:35.512Z,53.97
2023-04-08T02:56:03.897Z,46.90
2023-04-08T02:58:32.677Z,37.78
2023-04-08T03:01:01.376Z,38.28
2023-04-08T03:03:31.483Z,40.63
2023-04-08T03:06:00.419Z,38.80
2023-04-08T03:08:29.153Z,39.22
2023-04-08T03:10:57.443Z,41.45
2023-04-08T03:13:26.828Z,46.00
2023-04-08T03:15:55.224Z,49.85
2023-04-08T03:18:24.852Z,46.65
2023-04-08T03:20:53.130Z,50.78
2023-04-08T03:23:21.967Z,54.65
2023-04-08T03:25:50.422Z,53.10
2023-04-08T03:28:19.115Z,64.97
2023-04-08T03:30:47.546Z,65.18
2023-04-08T03:33:16.523Z,62.88
2023-04-08T03:35:44.818Z,63.50
2023-04-08T03:38:13.418Z,54.50
2023-04-08T03:40:41.721Z,57.80
2023-04-08T03:43:11.942Z,53.30
2023-04-08T03:45:41.533Z,45.10
2023-04-08T03:48:10.169Z,41.65
2023-04-08T03:50:38.801Z,43.75
2023-04-08T03:53:07.484Z,40.35
2023-04-08T03:55:36.005Z,34.45
2023-04-08T03:58:04.831Z,36.97
2023-04-08T04:00:33.321Z,41.53
2023-04-08T04:03:02.544Z,43.40
2023-04-08T04:05:31.053Z,38.42
2023-04-08T04:07:59.753Z,40.78
2023-04-08T04:10:27.996Z,42.50
2023-04-08T04:13:22.221Z,52.60
2023-04-08T04:15:50.826Z,54.97
2023-04-08T04:18:19.947Z,53.17
2023-04-08T04:20:48.473Z,50.25
2023-04-08T04:23:17.637Z,40.22
2023-04-08T04:25:46.056Z,42.72
2023-04-08T04:28:15.311Z,44.20
2023-04-08T04:30:45.837Z,40.10
2023-04-08T04:33:15.801Z,36.38
2023-04-08T04:35:44.746Z,40.40
2023-04-08T04:38:13.655Z,38.30
2023-04-08T04:40:44.615Z,40.45
2023-04-08T04:43:13.595Z,38.83
2023-04-08T04:45:42.173Z,33.75
2023-04-08T04:48:14.217Z,36.92
2023-04-08T04:50:43.965Z,47.55
2023-04-08T04:53:13.005Z,38.50
2023-04-08T04:55:42.811Z,36.15
2023-04-08T04:58:13.297Z,39.33
2023-04-08T05:00:43.353Z,41.28
2023-04-08T05:03:14.695Z,39.35
2023-04-08T05:05:45.695Z,41.53
2023-04-08T05:08:18.246Z,47.20
2023-04-08T05:10:46.859Z,50.40
2023-04-08T05:13:16.089Z,69.18
2023-04-08T05:15:46.300Z,69.32
2023-04-08T05:18:20.696Z,65.10
2023-04-08T05:20:49.333Z,61.50
2023-04-08T05:23:18.170Z,60.30
2023-04-08T05:25:51.550Z,72.43
2023-04-08T05:28:21.120Z,68.50
2023-04-08T05:31:03.539Z,68.03
2023-04-08T05:33:32.307Z,65.93
2023-04-08T05:36:04.138Z,76.63
2023-04-08T05:38:35.269Z,99.55
2023-04-08T05:41:09.759Z,104.47
2023-04-08T05:43:39.182Z,106.68
2023-04-08T05:46:12.484Z,96.20
2023-04-08T05:48:41.295Z,90.80
2023-04-08T05:51:18.045Z,88.10
2023-04-08T05:53:47.786Z,90.28
2023-04-08T05:56:31.605Z,84.35
2023-04-08T05:59:00.696Z,87.22
2023-04-08T06:02:00.118Z,72.32
2023-04-08T06:04:27.164Z,71.55
2023-04-08T06:06:56.964Z,64.10
2023-04-08T06:09:26.818Z,60.50
2023-04-08T06:11:55.239Z,51.58
2023-04-08T06:14:24.109Z,45.42
2023-04-08T06:16:57.560Z,40.63
2023-04-08T06:19:30.493Z,39.35
2023-04-08T06:21:59.768Z,38.45
2023-04-08T06:24:29.963Z,36.80
2023-04-08T06:26:58.463Z,31.95
2023-04-08T06:29:30.132Z,26.58
2023-04-08T06:31:58.911Z,27.95
2023-04-08T06:34:36.549Z,27.10
2023-04-08T06:37:06.547Z,25.23
2023-04-08T06:39:35.449Z,24.35
2023-04-08T06:42:03.854Z,21.88
2023-04-08T06:44:48.423Z,21.50
2023-04-08T06:47:18.687Z,20.85
2023-04-08T06:49:52.843Z,21.90
2023-04-08T06:52:21.557Z,20.35
2023-04-08T06:54:58.073Z,18.90
2023-04-08T06:57:41.210Z,19.33
2023-04-08T07:00:11.060Z,19.90
2023-04-08T07:02:39.578Z,21.15
2023-04-08T07:05:08.637Z,20.15
2023-04-08T07:07:37.775Z,19.88
2023-04-08T07:10:08.765Z,21.00
2023-04-08T07:12:38.969Z,21.08
2023-04-08T07:15:08.732Z,22.30
2023-04-08T07:17:37.187Z,25.02
2023-04-08T07:20:07.142Z,25.50
2023-04-08T07:22:35.460Z,23.88
2023-04-08T07:25:04.730Z,23.25
2023-04-08T07:27:35.125Z,23.80
2023-04-08T07:30:04.254Z,23.77
2023-04-08T07:32:33.760Z,22.55
2023-04-08T07:35:29.646Z,23.13
2023-04-08T07:37:58.202Z,24.05
2023-04-08T07:40:26.837Z,25.63
2023-04-08T07:42:55.227Z,24.90
2023-04-08T07:45:24.366Z,24.05
2023-04-08T07:47:52.636Z,23.83
2023-04-08T07:53:24.716Z,21.67
2023-04-08T07:55:53.664Z,23.00
2023-04-08T07:58:22.022Z,26.52
2023-04-08T08:00:51.623Z,20.63
2023-04-08T08:03:20.037Z,21.77
2023-04-08T08:06:14.050Z,22.33
2023-04-08T08:09:32.245Z,19.55
2023-04-08T08:12:02.188Z,17.13
2023-04-08T08:14:30.499Z,16.38
2023-04-08T08:17:24.112Z,17.83
2023-04-08T08:19:54.052Z,17.55
2023-04-08T08:22:22.822Z,17.17
2023-04-08T08:24:56.473Z,17.10
2023-04-08T08:27:26.633Z,17.75
2023-04-08T08:30:22.219Z,18.02
2023-04-08T08:33:16.425Z,17.58
2023-04-08T08:35:44.879Z,16.42
2023-04-08T08:38:14.509Z,16.27
2023-04-08T08:40:42.829Z,15.10
2023-04-08T08:43:12.326Z,18.42
2023-04-08T08:45:43.323Z,16.55
2023-04-08T08:48:17.606Z,19.75
2023-04-08T08:51:11.993Z,18.40
2023-04-08T08:53:45.721Z,15.70
2023-04-08T08:56:18.828Z,14.18
2023-04-08T08:58:48.028Z,15.23
2023-04-08T09:01:41.597Z,13.88
2023-04-08T09:04:17.078Z,14.85
2023-04-08T09:06:51.191Z,15.55
2023-04-08T09:09:20.825Z,14.98
2023-04-08T09:11:49.987Z,16.17
2023-04-08T09:14:26.592Z,14.18
2023-04-08T09:16:54.948Z,15.45
2023-04-08T09:19:23.840Z,14.60
2023-04-08T09:22:11.902Z,14.52
2023-04-08T09:24:40.859Z,15.10
2023-04-08T09:27:09.494Z,15.93
2023-04-08T09:29:40.041Z,14.50
2023-04-08T09:32:08.664Z,13.82
2023-04-08T09:34:37.710Z,15.77
2023-04-08T09:37:06.038Z,14.15
2023-04-08T09:39:34.756Z,14.35
2023-04-08T09:42:09.606Z,14.70
2023-04-08T09:44:38.834Z,15.68
2023-04-08T09:47:19.159Z,14.20
2023-04-08T09:49:55.428Z,14.05
2023-04-08T09:52:47.587Z,13.88
2023-04-08T09:55:19.617Z,14.90
2023-04-08T09:57:55.763Z,14.68
2023-04-08T10:00:34.790Z,13.40
2023-04-08T10:03:12.327Z,13.30
2023-04-08T10:05:43.880Z,12.27
2023-04-08T10:08:13.570Z,12.80
2023-04-08T10:10:43.392Z,13.43
2023-04-08T10:13:12.118Z,14.02
2023-04-08T10:15:43.237Z,14.18
2023-04-08T10:18:11.472Z,14.50
2023-04-08T10:20:40.383Z,14.73
2023-04-08T10:23:10.938Z,15.63
2023-04-08T10:25:41.762Z,14.13
2023-04-08T10:28:13.155Z,13.40
2023-04-08T10:30:48.689Z,13.77
2023-04-08T10:33:29.232Z,15.05
2023-04-08T10:36:17.816Z,15.10
2023-04-08T10:38:47.758Z,15.68
2023-04-08T10:41:24.528Z,13.73
2023-04-08T10:43:52.924Z,14.02
2023-04-08T10:46:22.532Z,15.23
2023-04-08T10:49:02.023Z,13.88
2023-04-08T10:51:35.188Z,13.48
2023-04-08T10:54:08.709Z,13.35
2023-04-08T10:56:45.125Z,14.25
2023-04-08T10:59:16.961Z,15.50
2023-04-08T11:01:47.135Z,13.88
2023-04-08T11:04:19.750Z,13.52
2023-04-08T11:06:48.635Z,13.98
2023-04-08T11:09:17.677Z,14.10
2023-04-08T11:11:46.995Z,14.65
2023-04-08T11:14:17.346Z,14.50
2023-04-08T11:16:46.124Z,14.02
2023-04-08T11:19:16.385Z,12.98
2023-04-08T11:21:46.034Z,12.50
2023-04-08T11:24:16.574Z,13.18
2023-04-08T11:26:45.878Z,12.93
2023-04-08T11:29:15.145Z,13.15
2023-04-08T11:31:44.470Z,12.68
2023-04-08T11:34:13.370Z,13.02
2023-04-08T11:36:42.420Z,13.65
2023-04-08T11:39:12.613Z,14.07
2023-04-08T11:41:41.163Z,12.55
2023-04-08T11:44:09.479Z,14.05
2023-04-08T11:46:38.433Z,13.98
2023-04-08T11:49:10.147Z,14.57
2023-04-08T11:51:57.821Z,14.38
2023-04-08T11:54:33.227Z,12.60
2023-04-08T11:57:03.174Z,12.10
2023-04-08T11:59:31.451Z,13.57
2023-04-08T12:02:00.596Z,13.88
2023-04-08T12:04:30.077Z,12.80
2023-04-08T12:06:58.896Z,13.02
2023-04-08T12:09:27.532Z,12.55
2023-04-08T12:11:56.840Z,13.10
2023-04-08T12:14:28.596Z,12.73
2023-04-08T12:16:57.201Z,12.73
2023-04-08T12:19:25.734Z,13.35
2023-04-08T12:21:56.293Z,12.73
2023-04-08T12:24:24.717Z,11.98
2023-04-08T12:26:53.768Z,11.75
2023-04-08T12:29:22.148Z,12.13
2023-04-08T12:31:51.863Z,12.32
2023-04-08T12:34:45.672Z,13.00
2023-04-08T12:37:14.303Z,12.85
2023-04-08T12:39:42.555Z,13.32
2023-04-08T12:42:11.336Z,12.73
2023-04-08T12:45:05.060Z,11.95
2023-04-08T12:47:35.175Z,12.80
2023-04-08T12:50:04.067Z,12.30
2023-04-08T12:52:33.540Z,12.82
2023-04-08T12:55:02.164Z,10.82
2023-04-08T12:57:32.195Z,10.45
2023-04-08T13:00:00.519Z,11.20
2023-04-08T13:02:29.246Z,11.20
2023-04-08T13:04:57.858Z,10.93
2023-04-08T13:07:29.801Z,11.25
2023-04-08T13:09:58.321Z,11.13
2023-04-08T13:12:27.643Z,10.20
2023-04-08T13:14:56.448Z,9.20
2023-04-08T13:17:25.435Z,9.43
2023-04-08T13:19:55.019Z,11.48
2023-04-08T13:22:23.875Z,12.02
2023-04-08T13:24:52.194Z,10.70
2023-04-08T13:27:22.015Z,11.63
2023-04-08T13:29:50.461Z,11.82
2023-04-08T13:32:19.250Z,11.00
2023-04-08T13:34:47.771Z,10.23
2023-04-08T13:37:17.138Z,10.50
2023-04-08T13:39:45.410Z,9.40
2023-04-08T13:42:14.252Z,10.02
2023-04-08T13:44:42.475Z,11.73
2023-04-08T13:47:12.385Z,12.20
2023-04-08T13:49:44.081Z,9.32
2023-04-08T13:52:12.773Z,9.27
2023-04-08T13:54:41.440Z,9.20
2023-04-08T13:57:10.203Z,9.80
2023-04-08T13:59:38.646Z,9.93
2023-04-08T14:02:07.565Z,10.18
2023-04-08T14:04:36.037Z,10.18
2023-04-08T14:07:54.630Z,9.38
2023-04-08T14:10:22.979Z,10.05
2023-04-08T14:12:51.586Z,9.68
2023-04-08T14:15:19.886Z,10.05
2023-04-08T14:17:48.687Z,10.80
2023-04-08T14:20:17.034Z,10.32
2023-04-08T14:22:45.962Z,9.82
2023-04-08T14:25:14.379Z,9.23
2023-04-08T14:27:56.799Z,9.63
2023-04-08T14:30:27.232Z,8.90
2023-04-08T14:33:03.865Z,8.63
2023-04-08T14:35:32.237Z,9.95
2023-04-08T14:38:01.333Z,9.80
2023-04-08T14:40:29.642Z,9.43
2023-04-08T14:42:58.281Z,8.90
2023-04-08T14:45:27.181Z,8.18
2023-04-08T14:47:55.873Z,9.02
2023-04-08T14:50:24.391Z,9.40
2023-04-08T14:52:53.153Z,10.25
2023-04-08T14:55:22.656Z,9.18
2023-04-08T14:57:51.511Z,10.70
2023-04-08T15:00:19.875Z,8.68
2023-04-08T15:02:48.460Z,9.82
2023-04-08T15:05:20.920Z,8.98
2023-04-08T15:07:50.045Z,9.45
2023-04-08T15:10:18.281Z,9.85
2023-04-08T15:12:47.586Z,9.77
2023-04-08T15:15:17.479Z,11.63
2023-04-08T15:17:46.962Z,9.57
2023-04-08T15:20:16.061Z,8.68
2023-04-08T15:22:45.362Z,8.60
2023-04-08T15:25:13.871Z,7.70
2023-04-08T15:27:43.074Z,7.72
2023-04-08T15:30:12.572Z,10.60
2023-04-08T15:32:42.084Z,8.00
2023-04-08T15:35:10.973Z,8.27
2023-04-08T15:37:39.831Z,8.05
2023-04-08T15:40:08.702Z,7.43
2023-04-08T15:42:38.023Z,8.00
2023-04-08T15:45:31.895Z,11.43
2023-04-08T15:48:00.784Z,9.18
2023-04-08T15:50:30.343Z,7.55
2023-04-08T15:52:58.978Z,8.65
2023-04-08T15:55:40.073Z,8.02
2023-04-08T15:58:08.685Z,8.85
2023-04-08T16:00:37.449Z,8.48
2023-04-08T16:03:08.775Z,8.60
2023-04-08T16:05:39.781Z,70.28
2023-04-08T16:08:08.485Z,13.32
2023-04-08T16:10:36.711Z,9.70
2023-04-08T16:13:05.359Z,9.75
2023-04-08T16:15:34.345Z,9.05
2023-04-08T16:18:28.358Z,9.18
2023-04-08T16:21:21.733Z,8.82
2023-04-08T16:23:50.628Z,7.95
2023-04-08T16:26:19.202Z,8.20
2023-04-08T16:28:51.988Z,8.73
2023-04-08T16:31:20.562Z,10.65
2023-04-08T16:33:49.616Z,10.60
2023-04-08T16:36:18.982Z,10.77
2023-04-08T16:38:57.621Z,10.43
2023-04-08T16:41:26.058Z,8.43
2023-04-08T16:43:54.711Z,8.18
2023-04-08T16:46:23.031Z,8.77
2023-04-08T16:48:51.625Z,8.65
2023-04-08T16:51:19.970Z,29.75
2023-04-08T16:53:48.518Z,15.40
2023-04-08T16:56:17.076Z,12.40
2023-04-08T16:58:46.157Z,10.98
2023-04-08T17:01:15.730Z,13.18
2023-04-08T17:03:44.882Z,15.18
2023-04-08T17:06:13.900Z,14.32
2023-04-08T17:08:45.242Z,19.75
2023-04-08T17:11:15.435Z,18.80
2023-04-08T17:13:44.873Z,21.20
2023-04-08T17:16:15.939Z,22.08
2023-04-08T17:18:45.445Z,20.63
2023-04-08T17:21:16.483Z,18.48
2023-04-08T17:24:05.494Z,17.80
2023-04-08T17:26:34.382Z,25.65
2023-04-08T17:29:05.912Z,20.02
2023-04-08T17:31:34.152Z,24.70
2023-04-08T17:34:04.772Z,24.73
2023-04-08T17:36:33.204Z,15.90
2023-04-08T17:39:01.893Z,13.82
2023-04-08T17:41:54.884Z,13.30
2023-04-08T17:47:36.566Z,15.43
2023-04-08T17:50:07.239Z,21.02
2023-04-08T17:52:35.579Z,14.00
2023-04-08T17:55:04.591Z,13.82
2023-04-08T17:58:02.593Z,16.13
2023-04-08T18:00:31.747Z,19.15
2023-04-08T18:03:04.768Z,22.00
2023-04-08T18:05:33.957Z,17.80
2023-04-08T18:08:02.503Z,13.60
2023-04-08T18:10:32.632Z,13.32
2023-04-08T18:13:15.402Z,14.00
2023-04-08T18:15:45.751Z,12.95
2023-04-08T18:18:43.196Z,13.68
2023-04-08T18:21:22.430Z,16.35
2023-04-08T18:23:51.203Z,17.73
2023-04-08T18:26:24.044Z,18.05
2023-04-08T18:28:53.847Z,18.00
2023-04-08T18:31:25.014Z,17.23
2023-04-08T18:34:04.049Z,18.55
2023-04-08T18:37:00.984Z,21.40
2023-04-08T18:42:19.627Z,18.65
2023-04-08T18:44:51.499Z,17.58
2023-04-08T18:47:59.972Z,16.63
2023-04-08T18:50:54.900Z,17.60
2023-04-08T18:53:28.452Z,15.07
2023-04-08T18:56:00.650Z,14.90
2023-04-08T18:58:32.904Z,15.35
2023-04-08T19:01:22.831Z,14.45
2023-04-08T19:03:56.031Z,14.07
2023-04-08T19:06:24.721Z,15.88
2023-04-08T19:08:54.741Z,15.50
2023-04-08T19:22:33.110Z,21.20
2023-04-08T19:25:14.786Z,18.80
2023-04-08T19:27:52.770Z,19.40
2023-04-08T19:31:03.610Z,20.20
2023-04-08T19:38:00.999Z,18.88
2023-04-08T19:40:32.636Z,23.35
2023-04-08T20:02:28.123Z,24.80
2023-04-08T20:05:01.113Z,25.95
2023-04-08T20:08:15.061Z,24.58
2023-04-08T20:10:54.685Z,24.80
2023-04-08T20:13:24.415Z,25.25
2023-04-08T20:15:53.449Z,27.45
2023-04-08T20:18:25.769Z,27.60
2023-04-08T20:21:24.563Z,26.13
2023-04-08T20:23:53.416Z,26.70
2023-04-08T20:26:26.934Z,25.20
2023-04-08T20:28:58.480Z,25.98
2023-04-08T20:33:56.775Z,22.45
2023-04-08T20:36:28.758Z,21.55
2023-04-08T20:39:00.344Z,23.45
2023-04-08T20:41:29.619Z,27.17
2023-04-08T20:43:58.081Z,34.17
2023-04-08T20:46:27.485Z,38.95
2023-04-08T20:48:56.220Z,40.22
2023-04-08T20:51:25.579Z,36.45
2023-04-08T20:53:54.099Z,32.47
2023-04-08T20:56:22.957Z,28.67
2023-04-08T20:58:54.589Z,23.25
2023-04-08T21:01:24.200Z,23.23
2023-04-08T21:03:55.058Z,22.15
2023-04-08T21:06:24.181Z,20.52
2023-04-08T21:08:52.649Z,20.00
2023-04-08T21:11:21.893Z,19.90
2023-04-08T21:13:50.519Z,18.80
2023-04-08T21:16:19.556Z,18.88
2023-04-08T21:18:51.217Z,19.33
2023-04-08T21:21:24.869Z,18.75
2023-04-08T21:23:53.929Z,20.13
2023-04-08T21:26:22.956Z,20.45
2023-04-08T21:28:53.891Z,20.98
2023-04-08T21:31:22.855Z,22.67
2023-04-08T21:33:57.735Z,23.70
2023-04-08T21:36:28.280Z,23.95
2023-04-08T21:38:57.474Z,24.45
2023-04-08T21:41:30.284Z,24.58
2023-04-08T21:44:03.726Z,29.73
2023-04-08T21:46:33.543Z,34.15
2023-04-08T21:49:04.284Z,38.90
2023-04-08T21:51:33.228Z,43.72
2023-04-08T21:54:02.198Z,40.90
2023-04-08T21:56:33.614Z,38.30
2023-04-08T21:59:02.299Z,42.78
2023-04-08T22:01:32.263Z,43.63
2023-04-08T22:04:03.440Z,45.38
2023-04-08T22:06:35.538Z,83.78
2023-04-08T22:09:04.118Z,120.28
2023-04-08T22:11:34.995Z,98.43
2023-04-08T22:14:03.883Z,71.75
2023-04-08T22:16:33.025Z,42.50
2023-04-08T22:19:26.311Z,45.35
2023-04-08T22:21:57.013Z,43.25
2023-04-08T22:24:28.447Z,41.28
2023-04-08T22:27:03.712Z,36.65
2023-04-08T22:32:15.056Z,31.33
2023-04-08T22:34:44.923Z,28.52
2023-04-08T22:37:13.719Z,29.40
2023-04-08T22:39:42.229Z,27.95
2023-04-08T22:42:11.504Z,26.65
2023-04-08T22:44:40.043Z,26.77
2023-04-08T22:47:08.922Z,26.65
2023-04-08T22:49:38.622Z,25.85
2023-04-08T22:52:07.501Z,26.38
2023-04-08T22:54:36.526Z,26.02
2023-04-08T22:57:05.723Z,25.98
2023-04-08T22:59:34.234Z,25.50
2023-04-08T23:02:03.118Z,26.20
2023-04-08T23:04:32.789Z,27.45
2023-04-08T23:07:02.919Z,27.25
2023-04-08T23:09:31.485Z,27.85
2023-04-08T23:12:01.500Z,28.23
2023-04-08T23:14:30.243Z,29.65
2023-04-08T23:17:04.972Z,27.98
2023-04-08T23:19:33.935Z,28.48
2023-04-08T23:22:03.051Z,27.60
2023-04-08T23:24:34.379Z,27.73
2023-04-08T23:27:03.249Z,27.08
2023-04-08T23:29:33.013Z,27.45
2023-04-08T23:32:02.270Z,27.83
2023-04-08T23:34:36.153Z,31.00
2023-04-08T23:37:06.480Z,32.08
2023-04-08T23:39:36.482Z,32.17
2023-04-08T23:42:05.296Z,36.80
2023-04-08T23:44:33.649Z,52.42
2023-04-08T23:47:02.339Z,67.40
2023-04-08T23:49:30.872Z,84.70
2023-04-08T23:51:59.613Z,84.18
2023-04-08T23:54:32.865Z,88.40
2023-04-08T23:57:01.975Z,93.82
2023-04-08T23:59:30.665Z,82.97
